»·PEaware :: EAL321 KRNO-KSLC

EAL321 :: KRNO-KSLC

FLIGHT INFORMATION

Flight Status: Arrived
Operator:
Eastern Air Lines
More flights by this operator :: More flights under this callsign
Pilot: Dave P. (45)
Aircraft: BOEING 737-800
(B738)
More flights by this aircraft type
Origin: KRNO Reno/Tahoe Intl
United States
Destination: KSLC Salt Lake City Intl
United States
More flights between these airports :: More routes between these airports
Route: ZEFFR6 BLKJK LLC BAM J154 BVL WAATS5
File this flight plan on PilotEdge
Remarks: callsign is "EASTERN"
Altitude:
(Current/Filed)
35,000ft
Speed:
(Current/Filed)
455kts
Departed: 29-Oct-20 09:12 AM
Arrived: 29-Oct-20 10:19 AM
Distance/Time
Traveled:
365nm/1:07
Distance/Time
To Go:
Arrived

Flight Plot

Page will automatically refresh every two minutes.

Flight plan parsing failed; only flown route is shown


Map Options




Map Legend


Flown Route
Filed Route
Departure Airport
Arrival Airport
Navaid (VOR, NDB)
Fix

Horizontal Profiles

Position Reports

Time Latitude Longitude Heading Altitude Ground
Speed
29-Oct-20 08:45 39.507409 -119.772487 219 4423ft 0kts
29-Oct-20 08:46 39.507409 -119.772487 219 4423ft 0kts
29-Oct-20 08:47 39.507409 -119.772487 219 4423ft 0kts
29-Oct-20 08:48 39.507409 -119.772487 219 4423ft 0kts
29-Oct-20 08:49 39.507409 -119.772487 219 4423ft 0kts
29-Oct-20 08:50 39.507409 -119.772487 219 4423ft 0kts
29-Oct-20 08:51 39.507409 -119.772487 219 4423ft 0kts
29-Oct-20 08:52 39.507409 -119.772487 219 4423ft 0kts
29-Oct-20 08:53 39.507409 -119.772487 219 4423ft 0kts
29-Oct-20 08:54 39.507409 -119.772487 219 4423ft 0kts
29-Oct-20 08:55 39.507409 -119.772487 219 4423ft 0kts
29-Oct-20 08:56 39.507409 -119.772487 219 4423ft 0kts
29-Oct-20 08:57 39.507409 -119.772487 219 4423ft 0kts
29-Oct-20 08:58 39.507409 -119.772487 219 4423ft 0kts
29-Oct-20 08:59 39.507903 -119.772089 147 4423ft 2kts
29-Oct-20 09:00 39.507959 -119.772168 121 4423ft 0kts
29-Oct-20 09:01 39.507959 -119.772168 121 4423ft 0kts
29-Oct-20 09:02 39.507940 -119.772100 100 4423ft 2kts
29-Oct-20 09:03 39.511779 -119.771473 359 4423ft 20kts
29-Oct-20 09:04 39.513778 -119.770424 93 4423ft 0kts
29-Oct-20 09:05 39.513778 -119.770423 93 4423ft 0kts
29-Oct-20 09:06 39.513778 -119.770421 93 4423ft 0kts
29-Oct-20 09:07 39.513778 -119.770419 93 4423ft 0kts
29-Oct-20 09:08 39.513778 -119.770417 93 4423ft 0kts
29-Oct-20 09:09 39.513778 -119.770416 93 4423ft 0kts
29-Oct-20 09:10 39.513466 -119.769272 160 4423ft 6kts
29-Oct-20 09:11 39.498463 -119.769260 179 4423ft 151kts
29-Oct-20 09:12 39.449160 -119.768885 180 6566ft 201kts
29-Oct-20 09:13 39.380915 -119.769532 179 8166ft 279kts
29-Oct-20 09:14 39.305159 -119.748146 132 11120ft 296kts
29-Oct-20 09:15 39.281906 -119.646129 78 14146ft 307kts
29-Oct-20 09:16 39.333480 -119.547793 54 15764ft 368kts
29-Oct-20 09:17 39.403871 -119.448380 41 18462ft 382kts
29-Oct-20 09:18 39.483834 -119.352841 41 20807ft 400kts
29-Oct-20 09:19 39.567092 -119.253050 41 22891ft 415kts
29-Oct-20 09:20 39.653424 -119.149293 41 24729ft 429kts
29-Oct-20 09:21 39.742139 -119.042279 41 26408ft 441kts
29-Oct-20 09:22 39.833335 -118.932850 42 27899ft 452kts
29-Oct-20 09:23 39.926722 -118.820175 42 29228ft 462kts
29-Oct-20 09:24 40.020873 -118.705441 42 30757ft 463kts
29-Oct-20 09:25 40.111566 -118.588029 53 32448ft 458kts
29-Oct-20 09:26 40.164096 -118.437691 70 34050ft 452kts
29-Oct-20 09:27 40.206060 -118.282579 70 35272ft 454kts
29-Oct-20 09:28 40.248821 -118.125411 69 35408ft 455kts
29-Oct-20 09:29 40.291532 -117.969932 70 35408ft 454kts
29-Oct-20 09:30 40.333620 -117.814091 70 35405ft 453kts
29-Oct-20 09:31 40.375439 -117.658046 70 35413ft 454kts
29-Oct-20 09:32 40.417080 -117.501665 70 35415ft 453kts
29-Oct-20 09:33 40.458398 -117.345505 71 35419ft 452kts
29-Oct-20 09:34 40.499761 -117.189597 71 35424ft 451kts
29-Oct-20 09:35 40.540297 -117.033454 71 35428ft 451kts
29-Oct-20 09:36 40.572104 -116.874380 83 35430ft 451kts
29-Oct-20 09:37 40.582135 -116.709914 85 35430ft 451kts
29-Oct-20 09:38 40.591673 -116.545524 85 35430ft 451kts
29-Oct-20 09:39 40.601794 -116.380900 85 35431ft 450kts
29-Oct-20 09:40 40.611584 -116.216827 85 35434ft 450kts
29-Oct-20 09:41 40.620933 -116.052341 86 35436ft 450kts
29-Oct-20 09:42 40.629985 -115.888243 86 35437ft 450kts
29-Oct-20 09:43 40.638818 -115.723815 86 35440ft 450kts
29-Oct-20 09:44 40.647447 -115.558766 86 35440ft 450kts
29-Oct-20 09:45 40.655810 -115.394321 86 35439ft 450kts
29-Oct-20 09:46 40.664356 -115.229500 86 35439ft 450kts
29-Oct-20 09:47 40.672013 -115.065000 86 35438ft 450kts
29-Oct-20 09:48 40.679590 -114.900474 86 35437ft 450kts
29-Oct-20 09:49 40.686722 -114.735230 86 35434ft 450kts
29-Oct-20 09:50 40.693575 -114.570563 86 35433ft 451kts
29-Oct-20 09:51 40.700755 -114.405254 86 35431ft 451kts
29-Oct-20 09:52 40.707766 -114.240055 86 35430ft 451kts
29-Oct-20 09:53 40.714658 -114.075444 87 33115ft 450kts
29-Oct-20 09:54 40.720588 -113.912811 87 30990ft 436kts
29-Oct-20 09:55 40.726163 -113.755561 87 29025ft 424kts
29-Oct-20 09:57 40.726053 -113.602351 90 27094ft 413kts
29-Oct-20 09:58 40.725285 -113.452473 90 25181ft 403kts
29-Oct-20 09:59 40.724605 -113.306167 90 23292ft 394kts
29-Oct-20 10:00 40.724904 -113.163433 90 21430ft 385kts
29-Oct-20 10:01 40.723937 -113.023705 90 19596ft 378kts
29-Oct-20 10:02 40.722829 -112.886279 90 17781ft 371kts
29-Oct-20 10:03 40.721943 -112.751397 90 16187ft 365kts
29-Oct-20 10:04 40.720560 -112.619564 89 15019ft 358kts
29-Oct-20 10:05 40.718604 -112.488932 90 13933ft 353kts
29-Oct-20 10:06 40.714950 -112.370834 90 12953ft 345kts
29-Oct-20 10:07 40.711166 -112.247072 88 12263ft 321kts
29-Oct-20 10:08 40.725134 -112.139021 49 11988ft 292kts
29-Oct-20 10:09 40.796009 -112.093068 359 11994ft 293kts
29-Oct-20 10:10 40.872111 -112.106560 354 11969ft 253kts
29-Oct-20 10:11 40.937471 -112.113971 353 11627ft 229kts
29-Oct-20 10:12 41.001738 -112.117621 16 10377ft 235kts
29-Oct-20 10:12 41.024574 -112.058613 99 9693ft 221kts
29-Oct-20 10:14 40.979632 -111.996376 167 8457ft 202kts
29-Oct-20 10:14 40.933049 -111.991320 175 7416ft 209kts
29-Oct-20 10:16 40.867436 -111.983673 174 5580ft 192kts
29-Oct-20 10:16 40.826444 -111.979120 173 4628ft 163kts
29-Oct-20 10:17 40.788201 -111.974649 175 4235ft 44kts
29-Oct-20 10:18 40.784901 -111.975540 209 4235ft 0kts
29-Oct-20 10:19 40.784043 -111.978034 264 4235ft 11kts
29-Oct-20 10:20 40.784919 -111.978976 6 4235ft 0kts
29-Oct-20 10:21 40.784919 -111.978976 6 4235ft 0kts
29-Oct-20 10:22 40.784919 -111.978976 6 4235ft 0kts
29-Oct-20 10:23 40.784919 -111.978976 6 4235ft 0kts

Navigation Log

Ident Type
Flight plan parsing failed, navigation log unavailable